createdAt,value
2022-10-11T00:01:12.019Z,1.80
2022-10-11T00:04:14.600Z,1.52
2022-10-11T00:07:18.522Z,1.77
2022-10-11T00:10:21.394Z,1.45
2022-10-11T00:13:26.012Z,1.42
2022-10-11T00:16:28.460Z,1.45
2022-10-11T00:19:30.882Z,1.85
2022-10-11T00:22:35.164Z,1.40
2022-10-11T00:25:37.846Z,1.38
2022-10-11T00:28:40.610Z,1.52
2022-10-11T00:31:43.116Z,1.42
2022-10-11T00:34:45.539Z,1.50
2022-10-11T00:37:50.094Z,1.30
2022-10-11T00:40:52.535Z,1.17
2022-10-11T00:44:10.772Z,1.33
2022-10-11T00:47:17.120Z,0.98
2022-10-11T00:50:21.023Z,1.38
2022-10-11T00:53:25.323Z,0.98
2022-10-11T00:56:29.016Z,1.45
2022-10-11T00:59:35.340Z,1.30
2022-10-11T01:02:38.061Z,0.80
2022-10-11T01:05:40.750Z,1.60
2022-10-11T01:08:44.980Z,0.93
2022-10-11T01:11:47.722Z,1.20
2022-10-11T01:14:57.794Z,1.45
2022-10-11T01:18:03.245Z,1.20
2022-10-11T01:21:34.130Z,1.30
2022-10-11T01:24:57.741Z,1.42
2022-10-11T01:28:11.263Z,1.38
2022-10-11T01:31:19.205Z,1.20
2022-10-11T01:34:24.722Z,1.35
2022-10-11T01:37:30.262Z,1.33
2022-10-11T01:40:35.253Z,1.08
2022-10-11T01:43:39.023Z,1.13
2022-10-11T01:46:45.352Z,1.05
2022-10-11T01:49:53.629Z,1.30
2022-10-11T01:52:57.203Z,0.90
2022-10-11T01:56:06.713Z,1.05
2022-10-11T01:59:17.617Z,1.27
2022-10-11T02:02:29.850Z,1.17
2022-10-11T02:05:36.105Z,1.50
2022-10-11T02:08:44.897Z,1.38
2022-10-11T02:11:47.599Z,1.10
2022-10-11T02:14:51.753Z,1.92
2022-10-11T02:18:23.094Z,1.00
2022-10-11T02:21:28.390Z,1.05
2022-10-11T02:24:32.667Z,1.30
2022-10-11T02:27:36.832Z,1.20
2022-10-11T02:30:41.428Z,1.10
2022-10-11T02:33:45.847Z,1.42
2022-10-11T02:36:52.290Z,1.15
2022-10-11T02:39:55.866Z,1.13
2022-10-11T02:43:00.699Z,1.35
2022-10-11T02:46:04.194Z,1.40
2022-10-11T02:49:08.267Z,1.20
2022-10-11T02:52:12.093Z,1.33
2022-10-11T02:55:14.575Z,1.73
2022-10-11T02:58:17.004Z,1.13
2022-10-11T03:01:19.489Z,1.27
2022-10-11T03:04:21.960Z,1.63
2022-10-11T03:07:25.773Z,1.10
2022-10-11T03:10:28.236Z,1.42
2022-10-11T03:13:30.778Z,1.48
2022-10-11T03:16:33.192Z,0.95
2022-10-11T03:19:35.663Z,1.48
2022-10-11T03:22:39.408Z,1.33
2022-10-11T03:25:41.849Z,1.30
2022-10-11T03:28:44.374Z,1.50
2022-10-11T03:31:46.840Z,1.35
2022-10-11T03:34:49.246Z,1.30
2022-10-11T03:37:53.015Z,1.40
2022-10-11T03:40:55.565Z,1.00
2022-10-11T03:43:58.274Z,1.45
2022-10-11T03:47:00.683Z,2.08
2022-10-11T03:50:04.335Z,1.30
2022-10-11T03:53:08.428Z,1.17
2022-10-11T03:56:12.089Z,1.40
2022-10-11T03:59:15.179Z,1.27
2022-10-11T04:02:17.737Z,1.65
2022-10-11T04:05:20.123Z,1.35
2022-10-11T04:08:24.004Z,1.52
2022-10-11T04:11:26.871Z,1.13
2022-10-11T04:14:29.253Z,1.38
2022-10-11T04:17:31.693Z,1.70
2022-10-11T04:20:34.495Z,1.45
2022-10-11T04:23:38.874Z,1.70
2022-10-11T04:26:42.199Z,1.30
2022-10-11T04:29:44.705Z,1.85
2022-10-11T04:32:47.249Z,1.35
2022-10-11T04:35:49.682Z,1.73
2022-10-11T04:38:56.186Z,1.70
2022-10-11T04:41:58.807Z,1.58
2022-10-11T04:45:01.267Z,1.30
2022-10-11T04:48:03.735Z,1.25
2022-10-11T04:51:06.738Z,1.27
2022-10-11T04:54:10.618Z,1.42
2022-10-11T04:57:13.318Z,1.83
2022-10-11T05:00:17.825Z,1.40
2022-10-11T05:03:20.317Z,1.70
2022-10-11T05:06:22.739Z,1.08
2022-10-11T05:09:26.641Z,1.50
2022-10-11T05:12:29.212Z,1.23
2022-10-11T05:15:31.669Z,1.20
2022-10-11T05:18:34.886Z,1.45
2022-10-11T05:21:37.267Z,1.60
2022-10-11T05:24:41.243Z,1.20
2022-10-11T05:27:44.624Z,1.35
2022-10-11T05:30:47.269Z,1.08
2022-10-11T05:33:49.893Z,1.40
2022-10-11T05:36:53.432Z,1.60
2022-10-11T05:39:57.444Z,1.10
2022-10-11T05:43:00.025Z,1.55
2022-10-11T05:46:02.874Z,1.52
2022-10-11T05:49:05.970Z,1.38
2022-10-11T05:52:09.111Z,1.67
2022-10-11T05:55:12.957Z,1.75
2022-10-11T05:58:20.046Z,1.55
2022-10-11T06:01:23.300Z,1.58
2022-10-11T06:04:28.839Z,1.30
2022-10-11T06:07:31.785Z,1.42
2022-10-11T06:10:35.828Z,1.50
2022-10-11T06:13:38.338Z,1.65
2022-10-11T06:16:40.901Z,1.50
2022-10-11T06:19:43.349Z,1.42
2022-10-11T06:22:47.580Z,1.65
2022-10-11T06:25:57.815Z,1.77
2022-10-11T06:29:55.210Z,1.60
2022-10-11T06:33:50.801Z,1.70
2022-10-11T06:36:53.309Z,1.60
2022-10-11T06:39:55.767Z,1.85
2022-10-11T06:43:00.750Z,1.33
2022-10-11T06:46:03.598Z,1.73
2022-10-11T06:49:06.658Z,1.60
2022-10-11T06:52:10.232Z,1.70
2022-10-11T06:55:12.790Z,1.45
2022-10-11T06:58:17.543Z,1.60
2022-10-11T07:01:21.433Z,1.38
2022-10-11T07:04:24.028Z,1.60
2022-10-11T07:07:26.516Z,1.60
2022-10-11T07:10:28.979Z,1.50
2022-10-11T07:13:32.953Z,1.73
2022-10-11T07:16:36.181Z,1.80
2022-10-11T07:19:38.810Z,1.58
2022-10-11T07:22:41.284Z,1.70
2022-10-11T07:25:43.960Z,1.58
2022-10-11T07:28:48.319Z,1.58
2022-10-11T07:31:50.951Z,1.80
2022-10-11T07:34:55.698Z,1.63
2022-10-11T07:38:01.265Z,1.60
2022-10-11T07:41:06.152Z,1.63
2022-10-11T07:44:11.080Z,1.80
2022-10-11T07:47:13.567Z,1.58
2022-10-11T07:50:16.192Z,1.50
2022-10-11T07:53:18.890Z,1.65
2022-10-11T07:56:22.487Z,1.50
2022-10-11T07:59:26.376Z,1.40
2022-10-11T08:02:29.083Z,1.42
2022-10-11T08:05:31.843Z,1.70
2022-10-11T08:08:34.384Z,1.30
2022-10-11T08:11:37.957Z,1.48
2022-10-11T08:14:44.153Z,1.50
2022-10-11T08:17:46.810Z,2.10
2022-10-11T08:20:49.541Z,1.60
2022-10-11T08:23:52.182Z,1.45
2022-10-11T08:26:55.846Z,1.77
2022-10-11T08:29:59.976Z,2.00
2022-10-11T08:33:07.537Z,1.35
2022-10-11T08:36:11.571Z,1.55
2022-10-11T08:39:14.159Z,1.45
2022-10-11T08:42:20.018Z,1.35
2022-10-11T08:45:31.293Z,1.70
2022-10-11T08:48:36.280Z,1.98
2022-10-11T08:51:40.702Z,1.55
2022-10-11T08:54:45.341Z,1.60
2022-10-11T08:57:51.657Z,1.77
2022-10-11T09:00:57.619Z,1.38
2022-10-11T09:04:00.947Z,1.60
2022-10-11T09:07:05.899Z,1.20
2022-10-11T09:10:17.955Z,1.45
2022-10-11T09:13:51.339Z,1.48
2022-10-11T09:17:07.915Z,1.70
2022-10-11T09:20:38.553Z,1.52
2022-10-11T09:24:02.839Z,1.70
2022-10-11T09:27:11.501Z,1.67
2022-10-11T09:30:16.291Z,1.52
2022-10-11T09:33:22.177Z,1.23
2022-10-11T09:36:31.531Z,1.52
2022-10-11T09:39:35.305Z,1.60
2022-10-11T09:42:39.951Z,1.33
2022-10-11T09:45:49.491Z,1.30
2022-10-11T09:48:54.963Z,1.77
2022-10-11T09:51:58.465Z,1.70
2022-10-11T09:55:02.082Z,1.48
2022-10-11T09:58:05.833Z,2.05
2022-10-11T10:01:09.554Z,1.58
2022-10-11T10:04:14.308Z,1.33
2022-10-11T10:07:16.862Z,1.42
2022-10-11T10:10:31.046Z,1.65
2022-10-11T10:13:47.079Z,1.02
2022-10-11T10:16:50.124Z,1.50
2022-10-11T10:19:54.930Z,1.73
2022-10-11T10:22:57.554Z,1.20
2022-10-11T10:26:13.819Z,1.75
2022-10-11T10:29:20.093Z,1.52
2022-10-11T10:32:25.685Z,1.50
2022-10-11T10:35:33.200Z,1.85
2022-10-11T10:38:37.350Z,1.48
2022-10-11T10:41:39.934Z,1.55
2022-10-11T10:44:43.278Z,1.42
2022-10-11T10:47:53.746Z,1.55
2022-10-11T10:51:00.442Z,1.63
2022-10-11T10:54:06.398Z,1.42
2022-10-11T10:57:15.669Z,1.65
2022-10-11T11:00:20.055Z,1.65
2022-10-11T11:03:24.833Z,1.20
2022-10-11T11:06:35.672Z,1.40
2022-10-11T11:09:45.415Z,1.40
2022-10-11T11:16:42.463Z,1.50
2022-10-11T11:20:47.473Z,1.48
2022-10-11T11:23:54.836Z,1.90
2022-10-11T11:27:02.395Z,1.42
2022-10-11T11:30:08.279Z,1.90
2022-10-11T11:33:15.511Z,1.25
2022-10-11T11:36:19.720Z,1.67
2022-10-11T11:39:25.545Z,1.65
2022-10-11T11:42:32.113Z,1.60
2022-10-11T11:45:37.266Z,1.50
2022-10-11T11:48:40.144Z,1.55
2022-10-11T11:51:45.087Z,1.63
2022-10-11T11:54:52.997Z,1.60
2022-10-11T11:58:01.109Z,1.23
2022-10-11T12:01:08.897Z,1.95
2022-10-11T12:04:14.540Z,1.60
2022-10-11T12:07:19.068Z,1.50
2022-10-11T12:10:29.675Z,1.38
2022-10-11T12:13:35.545Z,1.33
2022-10-11T12:17:06.092Z,1.50
2022-10-11T12:20:14.773Z,2.00
2022-10-11T12:23:37.234Z,1.20
2022-10-11T12:26:47.715Z,1.45
2022-10-11T12:29:50.750Z,1.13
2022-10-11T12:32:56.053Z,1.20
2022-10-11T12:36:07.270Z,1.85
2022-10-11T12:39:30.785Z,1.17
2022-10-11T12:42:37.697Z,1.40
2022-10-11T12:45:41.152Z,1.67
2022-10-11T12:48:48.695Z,1.55
2022-10-11T12:51:59.002Z,1.20
2022-10-11T12:55:10.694Z,1.38
2022-10-11T12:58:33.241Z,1.08
2022-10-11T13:01:38.022Z,1.48
2022-10-11T13:04:41.297Z,1.63
2022-10-11T13:07:45.059Z,1.10
2022-10-11T13:10:48.549Z,1.17
2022-10-11T13:13:56.477Z,1.35
2022-10-11T13:17:07.626Z,1.05
2022-10-11T13:20:16.802Z,1.15
2022-10-11T13:23:23.652Z,1.50
2022-10-11T13:26:26.617Z,1.85
2022-10-11T13:29:31.404Z,1.55
2022-10-11T13:32:37.055Z,1.65
2022-10-11T13:35:41.421Z,1.33
2022-10-11T13:38:50.799Z,1.17
2022-10-11T13:41:53.450Z,1.65
2022-10-11T13:45:00.607Z,1.75
2022-10-11T13:48:04.878Z,1.08
2022-10-11T13:51:10.610Z,1.23
2022-10-11T13:54:14.037Z,1.38
2022-10-11T13:57:18.506Z,1.42
2022-10-11T14:00:25.382Z,1.48
2022-10-11T14:03:38.231Z,1.67
2022-10-11T14:06:43.042Z,1.33
2022-10-11T14:09:46.931Z,1.30
2022-10-11T14:12:58.877Z,1.58
2022-10-11T14:16:05.596Z,1.15
2022-10-11T14:19:11.403Z,1.13
2022-10-11T14:22:14.906Z,1.30
2022-10-11T14:25:17.491Z,1.33
2022-10-11T14:28:20.079Z,1.65
2022-10-11T14:31:22.752Z,1.50
2022-10-11T14:34:27.788Z,0.88
2022-10-11T14:37:30.303Z,1.55
2022-10-11T14:40:35.082Z,1.98
2022-10-11T14:43:38.614Z,1.65
2022-10-11T14:46:41.310Z,1.50
2022-10-11T14:49:50.794Z,1.20
2022-10-11T14:52:53.725Z,1.77
2022-10-11T14:55:57.478Z,1.50
2022-10-11T14:59:02.377Z,0.93
2022-10-11T15:02:06.302Z,1.10
2022-10-11T15:05:10.482Z,1.20
2022-10-11T15:08:14.806Z,1.10
2022-10-11T15:11:20.449Z,1.35
2022-10-11T15:14:23.435Z,0.93
2022-10-11T15:17:26.429Z,1.52
2022-10-11T15:20:31.524Z,1.55
2022-10-11T15:23:34.339Z,1.10
2022-10-11T15:26:36.945Z,0.98
2022-10-11T15:29:39.507Z,1.30
2022-10-11T15:32:41.929Z,6.85
2022-10-11T15:35:46.773Z,3.47
2022-10-11T15:38:50.066Z,1.73
2022-10-11T15:41:52.520Z,0.88
2022-10-11T15:44:55.031Z,1.20
2022-10-11T15:47:58.486Z,1.63
2022-10-11T15:51:02.458Z,1.60
2022-10-11T15:54:06.469Z,1.42
2022-10-11T15:57:14.501Z,1.42
2022-10-11T16:29:48.024Z,1.20
2022-10-11T16:32:50.769Z,1.42
2022-10-11T16:35:53.754Z,1.40
2022-10-11T16:38:56.251Z,2.17
2022-10-11T16:42:01.565Z,1.00
2022-10-11T16:45:06.370Z,1.30
2022-10-11T16:48:09.372Z,1.70
2022-10-11T16:51:14.047Z,1.08
2022-10-11T16:54:25.855Z,1.10
2022-10-11T16:57:28.798Z,1.67
2022-10-11T17:00:37.628Z,1.30
2022-10-11T17:03:44.752Z,2.08
2022-10-11T17:06:55.646Z,1.38
2022-10-11T17:10:00.974Z,1.58
2022-10-11T17:13:04.970Z,1.17
2022-10-11T17:16:09.500Z,1.35
2022-10-11T17:19:12.688Z,1.58
2022-10-11T17:22:16.144Z,2.53
2022-10-11T17:25:18.882Z,2.85
2022-10-11T17:28:24.061Z,2.63
2022-10-11T17:31:28.440Z,2.50
2022-10-11T17:34:30.933Z,2.10
2022-10-11T17:37:34.053Z,2.47
2022-10-11T17:40:43.645Z,1.98
2022-10-11T17:43:46.388Z,1.77
2022-10-11T17:46:50.253Z,2.20
2022-10-11T17:49:52.873Z,1.45
2022-10-11T17:52:55.407Z,1.30
2022-10-11T17:55:58.757Z,2.00
2022-10-11T17:59:01.420Z,1.42
2022-10-11T18:02:05.271Z,1.88
2022-10-11T18:05:08.251Z,1.45
2022-10-11T18:08:26.162Z,1.65
2022-10-11T18:11:28.687Z,1.75
2022-10-11T18:14:32.465Z,1.55
2022-10-11T18:17:42.704Z,1.90
2022-10-11T18:20:46.033Z,1.58
2022-10-11T18:23:48.673Z,1.52
2022-10-11T18:26:51.889Z,1.48
2022-10-11T18:29:54.401Z,1.23
2022-10-11T18:32:58.167Z,1.52
2022-10-11T18:36:01.390Z,1.77
2022-10-11T18:39:05.579Z,1.55
2022-10-11T18:42:07.988Z,1.33
2022-10-11T18:45:11.200Z,1.75
2022-10-11T18:48:15.308Z,2.72
2022-10-11T18:51:19.189Z,2.60
2022-10-11T18:54:21.797Z,2.67
2022-10-11T18:57:24.382Z,2.15
2022-10-11T19:00:42.412Z,2.83
2022-10-11T19:03:47.350Z,3.05
2022-10-11T19:06:50.554Z,2.60
2022-10-11T19:09:53.218Z,2.15
2022-10-11T19:12:55.831Z,2.60
2022-10-11T19:16:03.780Z,2.58
2022-10-11T19:19:09.447Z,3.38
2022-10-11T19:22:12.054Z,3.30
2022-10-11T19:25:14.852Z,3.05
2022-10-11T19:28:18.586Z,3.10
2022-10-11T19:31:21.283Z,2.78
2022-10-11T19:34:26.801Z,2.53
2022-10-11T19:37:29.837Z,2.55
2022-10-11T19:40:33.809Z,2.45
2022-10-11T19:43:39.842Z,2.53
2022-10-11T19:47:02.735Z,2.10
2022-10-11T19:50:07.492Z,2.40
2022-10-11T19:53:10.919Z,2.42
2022-10-11T19:56:14.752Z,2.67
2022-10-11T19:59:17.742Z,2.45
2022-10-11T20:02:20.605Z,2.13
2022-10-11T20:05:25.005Z,2.35
2022-10-11T20:08:28.436Z,2.47
2022-10-11T20:11:32.801Z,2.20
2022-10-11T20:14:35.527Z,2.78
2022-10-11T20:17:50.528Z,3.05
2022-10-11T20:20:55.751Z,2.65
2022-10-11T20:23:59.518Z,2.40
2022-10-11T20:27:02.384Z,2.58
2022-10-11T20:30:05.672Z,2.67
2022-10-11T20:33:08.452Z,2.85
2022-10-11T20:36:13.387Z,2.42
2022-10-11T20:39:16.183Z,2.38
2022-10-11T20:42:19.406Z,3.80
2022-10-11T20:45:22.186Z,2.85
2022-10-11T20:48:25.245Z,2.45
2022-10-11T20:51:29.858Z,3.08
2022-10-11T20:54:34.634Z,2.80
2022-10-11T20:57:37.196Z,2.80
2022-10-11T21:00:39.940Z,3.28
2022-10-11T21:03:43.116Z,2.83
2022-10-11T21:06:47.149Z,2.75
2022-10-11T21:09:49.939Z,3.20
2022-10-11T21:12:52.640Z,2.55
2022-10-11T21:15:55.639Z,3.33
2022-10-11T21:18:59.131Z,2.80
2022-10-11T21:22:03.265Z,3.38
2022-10-11T21:25:06.488Z,2.83
2022-10-11T21:28:10.125Z,3.08
2022-10-11T21:31:14.408Z,2.50
2022-10-11T21:34:21.564Z,2.65
2022-10-11T21:37:25.568Z,2.63
2022-10-11T21:40:28.168Z,2.83
2022-10-11T21:43:30.715Z,2.47
2022-10-11T21:50:05.061Z,2.33
2022-10-11T21:53:09.077Z,2.95
2022-10-11T21:56:11.737Z,2.78
2022-10-11T21:59:14.288Z,2.42
2022-10-11T22:02:16.860Z,2.42
2022-10-11T22:05:19.493Z,2.40
2022-10-11T22:08:23.608Z,2.35
2022-10-11T22:11:26.336Z,2.80
2022-10-11T22:14:29.117Z,3.72
2022-10-11T22:17:31.703Z,3.17
2022-10-11T22:20:34.268Z,3.03
2022-10-11T22:23:38.961Z,2.90
2022-10-11T22:26:41.518Z,3.30
2022-10-11T22:29:44.188Z,3.17
2022-10-11T22:32:46.745Z,2.85
2022-10-11T22:35:53.840Z,2.85
2022-10-11T22:38:58.465Z,2.83
2022-10-11T22:42:00.907Z,3.30
2022-10-11T22:45:03.859Z,3.00
2022-10-11T22:48:06.502Z,2.65
2022-10-11T22:51:09.241Z,2.58
2022-10-11T22:54:14.164Z,2.38
2022-10-11T22:57:16.681Z,2.72
2022-10-11T23:00:19.547Z,2.58
2022-10-11T23:03:22.168Z,2.80
2022-10-11T23:06:24.807Z,2.45
2022-10-11T23:09:28.896Z,2.33
2022-10-11T23:12:31.588Z,2.60
2022-10-11T23:15:34.183Z,2.85
2022-10-11T23:18:37.276Z,2.55
2022-10-11T23:21:39.907Z,2.60
2022-10-11T23:24:43.867Z,2.28
2022-10-11T23:27:46.504Z,2.50
2022-10-11T23:30:49.308Z,2.20
2022-10-11T23:33:51.916Z,2.30
2022-10-11T23:36:54.441Z,2.47
2022-10-11T23:39:58.348Z,2.00
2022-10-11T23:43:00.952Z,2.15
2022-10-11T23:46:04.288Z,2.35
2022-10-11T23:49:06.993Z,1.80
2022-10-11T23:52:09.532Z,2.28
2022-10-11T23:55:13.704Z,2.58
2022-10-11T23:58:16.259Z,2.47
